Terminal Aerodrome Forecast
Issued by NWS

Home | Current Version | Previous Version | Text Only | Print | Product List | Glossary On
Versions: 1 2 3 4 5 6 7 8 9 10 11 12 13
000
FTUS44 KTSA 242100 AAA
TAFBVO
TAF AMD
KBVO 242109Z 2421/2518 31004KT P6SM BKN029
     FM242300 VRB03KT P6SM SCT025
     FM250100 VRB04KT P6SM FEW250
     FM251400 17013KT P6SM SCT250=

USA.gov is the U.S. government's official web portal to all federal, state and local government web resources and services.